Time;durP1;ratioP1;P1;durP2;ratioP2;P2;SDS_P1;SDS_P2;PMS_P1;PMS_P2;Temp;Humidity;BMP_temperature;BMP_pressure;BME280_temperature;BME280_humidity;BME280_pressure;Samples;Min_cycle;Max_cycle;Signal;HPM_P1;HPM_P2
2023/05/03 00:01:30;;;;;;;11.20;6.70;;;;;;;5.86;58.63;101029.13;10505141;28;20142;-63
2023/05/03 00:06:32;;;;;;;9.95;5.72;;;;;;;5.86;58.58;101039.50;10522417;28;20052;-63
2023/05/03 00:11:34;;;;;;;9.80;6.90;;;;;;;5.81;58.66;101035.31;10522769;28;20110;-63
2023/05/03 00:16:36;;;;;;;13.35;6.57;;;;;;;5.69;58.67;101033.88;10522394;28;20123;-63
2023/05/03 00:21:38;;;;;;;13.55;6.50;;;;;;;5.63;58.84;101030.53;10486961;28;20135;-62
2023/05/03 00:26:39;;;;;;;13.38;6.53;;;;;;;5.55;58.87;101028.97;10503732;28;20097;-63
2023/05/03 00:31:44;;;;;;;10.35;6.05;;;;;;;5.50;59.27;101019.56;10521742;28;20048;-63
2023/05/03 00:36:46;;;;;;;14.05;6.80;;;;;;;5.43;59.17;101018.84;10503162;28;20062;-63
2023/05/03 00:41:48;;;;;;;9.27;6.32;;;;;;;5.35;59.42;101005.19;10503144;28;20401;-63
2023/05/03 00:46:51;;;;;;;9.73;6.28;;;;;;;5.41;59.37;101005.06;10521855;28;20139;-63
2023/05/03 00:51:53;;;;;;;7.90;6.10;;;;;;;5.38;59.50;100997.34;10536386;28;20052;-63
2023/05/03 00:56:55;;;;;;;11.10;6.28;;;;;;;5.37;59.03;101002.59;10502580;28;20135;-63
2023/05/03 01:01:57;;;;;;;13.63;6.45;;;;;;;5.21;59.12;100988.22;10520335;28;20503;-63
2023/05/03 01:07:29;;;;;;;10.73;5.68;;;;;;;5.05;60.04;100994.59;10500952;28;20060;-63
2023/05/03 01:13:15;;;;;;;9.55;6.45;;;;;;;5.00;59.96;101001.63;10520071;28;20423;-63
2023/05/03 01:18:20;;;;;;;12.82;6.90;;;;;;;4.84;60.03;100997.63;10479060;28;20051;-63
2023/05/03 01:23:31;;;;;;;11.73;6.60;;;;;;;4.79;59.77;100994.25;10501417;28;20154;-63
2023/05/03 01:28:35;;;;;;;9.32;6.18;;;;;;;4.82;59.55;100994.22;10519308;28;20149;-63
2023/05/03 01:33:48;;;;;;;7.97;6.13;;;;;;;4.67;59.83;101001.41;10519508;28;20079;-63
2023/05/03 01:38:49;;;;;;;16.85;6.95;;;;;;;4.66;59.68;101007.47;10518912;28;20063;-63
2023/05/03 01:43:53;;;;;;;13.02;7.10;;;;;;;4.59;59.73;101003.28;10519002;28;20044;-63
2023/05/03 01:48:55;;;;;;;8.82;6.10;;;;;;;4.46;60.13;101013.88;10516573;28;20062;-63
2023/05/03 01:53:57;;;;;;;10.02;6.50;;;;;;;4.48;59.97;101020.75;10518698;28;20404;-63
2023/05/03 01:58:59;;;;;;;11.77;6.60;;;;;;;4.37;60.13;101027.00;10517791;28;20762;-63
2023/05/03 02:04:01;;;;;;;10.77;6.22;;;;;;;4.32;60.09;101033.97;10499848;28;20075;-63
2023/05/03 02:09:03;;;;;;;11.18;6.43;;;;;;;4.27;60.21;101044.41;10499607;28;20048;-63
2023/05/03 02:14:05;;;;;;;11.20;6.35;;;;;;;4.15;60.36;101034.25;10499507;28;20051;-63
2023/05/03 02:19:07;;;;;;;12.32;7.55;;;;;;;4.12;60.38;101038.63;10517362;28;20460;-63
2023/05/03 02:24:09;;;;;;;14.10;6.72;;;;;;;4.08;60.23;101042.16;10517456;28;20455;-63
2023/05/03 02:29:10;;;;;;;12.80;7.03;;;;;;;4.05;60.51;101037.88;10517508;28;20054;-63
2023/05/03 02:34:12;;;;;;;11.63;7.38;;;;;;;3.89;60.19;101036.41;10498986;28;20047;-63
2023/05/03 02:39:14;;;;;;;10.38;6.75;;;;;;;3.91;60.27;101031.19;10517249;28;20172;-63
2023/05/03 02:44:16;;;;;;;11.70;6.88;;;;;;;3.95;60.51;101033.72;10482094;28;20085;-63
2023/05/03 02:49:18;;;;;;;12.20;7.22;;;;;;;3.89;60.51;101031.22;10481972;28;20056;-63
2023/05/03 02:54:20;;;;;;;11.95;6.72;;;;;;;3.84;60.60;101028.69;10516862;28;20044;-63
2023/05/03 02:59:22;;;;;;;12.70;6.05;;;;;;;3.78;60.59;101025.34;10481831;28;20102;-63
2023/05/03 03:04:25;;;;;;;11.32;7.30;;;;;;;3.70;60.44;101024.59;10499068;28;20052;-63
2023/05/03 03:09:26;;;;;;;11.70;7.05;;;;;;;3.66;60.47;101025.50;10498045;28;20040;-63
2023/05/03 03:14:29;;;;;;;10.57;6.50;;;;;;;3.64;60.70;101030.69;10481281;28;20044;-63
2023/05/03 03:19:31;;;;;;;14.80;7.53;;;;;;;3.64;60.56;101024.69;10532200;28;20132;-63
2023/05/03 03:24:33;;;;;;;13.13;6.53;;;;;;;3.62;60.74;101034.19;10516418;28;20044;-63
2023/05/03 03:29:35;;;;;;;12.50;8.48;;;;;;;3.54;60.61;101026.53;10516147;28;20052;-63
2023/05/03 03:34:39;;;;;;;10.55;7.20;;;;;;;3.46;60.54;101030.06;10506112;28;20046;-63
2023/05/03 03:39:41;;;;;;;11.88;6.97;;;;;;;3.47;60.39;101021.47;10505452;28;20055;-63
2023/05/03 03:44:44;;;;;;;11.50;7.05;;;;;;;3.40;60.51;101030.16;10490628;28;20298;-63
2023/05/03 03:49:47;;;;;;;10.65;7.72;;;;;;;3.39;60.73;101038.81;10504662;28;20131;-63
2023/05/03 03:54:49;;;;;;;20.58;8.30;;;;;;;3.39;60.84;101037.09;10505305;28;20044;-62
2023/05/03 03:59:51;;;;;;;55.22;8.80;;;;;;;3.41;60.69;101035.34;10522825;28;20084;-62
2023/05/03 04:04:53;;;;;;;82.82;10.82;;;;;;;3.39;61.06;101038.81;10504652;28;20139;-62
2023/05/03 04:09:55;;;;;;;19.38;8.82;;;;;;;3.41;61.02;101037.91;10521571;28;20147;-63
2023/05/03 04:14:58;;;;;;;35.47;9.55;;;;;;;3.50;60.79;101042.94;10503932;28;20496;-63
2023/05/03 04:20:09;;;;;;;42.60;9.23;;;;;;;3.56;60.87;101037.69;10487859;28;20056;-62
2023/05/03 04:25:15;;;;;;;126.82;11.70;;;;;;;3.55;60.77;101038.59;10503742;28;20499;-62
2023/05/03 04:30:23;;;;;;;62.67;10.40;;;;;;;3.67;60.85;101034.97;10503552;28;20588;-63
2023/05/03 04:35:28;;;;;;;67.30;10.10;;;;;;;3.81;60.71;101030.44;10537633;28;20113;-63
2023/05/03 04:40:33;;;;;;;28.50;8.48;;;;;;;3.85;60.70;101035.59;10503189;28;20047;-63
2023/05/03 04:45:41;;;;;;;49.95;8.27;;;;;;;3.94;60.43;101029.44;10502794;28;20407;-63
2023/05/03 04:50:47;;;;;;;18.77;7.07;;;;;;;3.95;60.51;101043.19;10503127;28;20052;-63
2023/05/03 04:55:52;;;;;;;128.73;9.63;;;;;;;4.13;60.06;101040.34;10502481;28;20050;-63
2023/05/03 05:00:54;;;;;;;46.13;7.53;;;;;;;4.88;58.99;101044.22;10485459;28;20044;-63
2023/05/03 05:06:01;;;;;;;108.40;9.73;;;;;;;5.15;58.20;101041.06;10502179;28;20054;-63
2023/05/03 05:11:05;;;;;;;82.43;8.80;;;;;;;5.44;57.66;101040.47;10502046;28;20048;-63
2023/05/03 05:16:08;;;;;;;80.75;8.73;;;;;;;5.57;57.12;101039.31;10501499;28;20055;-63
2023/05/03 05:21:12;;;;;;;39.97;8.32;;;;;;;5.64;57.10;101051.25;10501756;28;20155;-64
2023/05/03 05:26:14;;;;;;;76.15;8.73;;;;;;;5.80;56.72;101038.81;10519666;28;20591;-63
2023/05/03 05:31:17;;;;;;;33.22;7.07;;;;;;;6.03;56.18;101032.19;10484156;28;20496;-63
2023/05/03 05:36:19;;;;;;;11.10;6.88;;;;;;;5.71;56.44;101029.50;10500840;28;20051;-63
2023/05/03 05:41:23;;;;;;;37.05;7.97;;;;;;;5.54;56.34;101029.00;10500869;28;20054;-63
2023/05/03 05:46:25;;;;;;;23.42;8.23;;;;;;;5.66;57.04;101028.72;10500580;28;20044;-63
2023/05/03 05:51:30;;;;;;;31.83;8.90;;;;;;;5.80;56.79;101054.41;10500353;28;20348;-63
2023/05/03 05:56:32;;;;;;;17.02;7.93;;;;;;;5.84;56.88;101056.03;10518262;28;20395;-63
2023/05/03 06:01:35;;;;;;;11.18;7.65;;;;;;;5.87;57.21;101055.94;10483267;28;20051;-63
2023/05/03 06:06:38;;;;;;;14.05;9.02;;;;;;;5.91;56.98;101058.44;10494280;28;20360;-63
2023/05/03 06:11:42;;;;;;;10.05;6.90;;;;;;;6.20;57.06;101060.38;10499725;28;20408;-63
2023/05/03 06:16:44;;;;;;;12.27;7.70;;;;;;;6.42;56.65;101055.53;10481961;28;20588;-63
2023/05/03 06:21:46;;;;;;;19.15;7.88;;;;;;;6.42;57.19;101055.53;10483235;28;20568;-63
2023/05/03 06:26:48;;;;;;;24.58;7.85;;;;;;;6.53;57.05;101059.53;10533276;28;20032;-63
2023/05/03 06:31:51;;;;;;;16.08;7.90;;;;;;;6.73;56.14;101057.31;10532606;28;20055;-63
2023/05/03 06:36:53;;;;;;;18.20;7.60;;;;;;;6.60;55.62;101055.91;10498903;28;20052;-63
2023/05/03 06:41:56;;;;;;;14.88;7.28;;;;;;;6.71;55.97;101063.44;10498908;28;20307;-63
2023/05/03 06:47:07;;;;;;;17.00;8.00;;;;;;;6.83;55.34;101053.56;10496542;28;20534;-63
2023/05/03 06:52:10;;;;;;;14.20;7.05;;;;;;;7.22;54.90;101059.44;10491808;28;20083;-63
2023/05/03 06:57:12;;;;;;;17.80;7.03;;;;;;;7.16;53.84;101055.22;10516634;28;20067;-63
2023/05/03 07:02:14;;;;;;;15.25;7.03;;;;;;;7.13;53.54;101057.06;10516645;28;20121;-63
2023/05/03 07:07:16;;;;;;;14.35;7.15;;;;;;;7.15;53.00;101060.50;10522810;28;20101;-63
2023/05/03 07:12:18;;;;;;;19.08;7.50;;;;;;;7.43;52.63;101057.94;10525221;28;20055;-63
2023/05/03 07:17:20;;;;;;;15.88;6.63;;;;;;;7.75;52.50;101053.50;10524598;28;20496;-63
2023/05/03 07:22:26;;;;;;;15.77;6.43;;;;;;;8.01;52.32;101035.31;10524876;28;20071;-63
2023/05/03 07:27:28;;;;;;;13.05;6.55;;;;;;;8.40;51.61;101038.44;10524383;28;20131;-63
2023/05/03 07:32:31;;;;;;;15.10;6.63;;;;;;;9.27;50.60;101024.00;10524205;28;20050;-63
2023/05/03 07:37:33;;;;;;;13.80;6.18;;;;;;;10.25;47.54;101021.91;10524070;28;20079;-63
2023/05/03 07:42:35;;;;;;;12.27;5.63;;;;;;;11.32;46.27;101022.44;10523744;28;20098;-63
2023/05/03 07:47:38;;;;;;;9.73;4.68;;;;;;;12.65;44.31;101013.34;10488366;28;20048;-64
2023/05/03 07:52:42;;;;;;;10.73;4.85;;;;;;;13.48;41.22;101006.31;10523922;28;20051;-64
2023/05/03 07:57:44;;;;;;;10.70;4.55;;;;;;;14.12;39.85;100998.28;10523704;28;20051;-63
2023/05/03 08:02:45;;;;;;;8.98;4.28;;;;;;;14.86;39.02;100993.91;10538510;28;20040;-64
2023/05/03 08:07:48;;;;;;;9.95;4.30;;;;;;;14.36;37.28;100992.47;10522670;28;20486;-64
2023/05/03 08:12:50;;;;;;;8.48;4.40;;;;;;;14.29;37.70;100990.25;10522680;28;20905;-64
2023/05/03 08:17:52;;;;;;;9.35;4.60;;;;;;;14.76;37.33;100982.22;10521501;28;20131;-64
2023/05/03 08:22:58;;;;;;;8.40;4.40;;;;;;;15.25;35.10;100999.34;10522299;28;20080;-64
2023/05/03 08:28:00;;;;;;;11.43;4.68;;;;;;;14.87;36.45;100983.25;10521875;28;20052;-64
2023/05/03 08:33:02;;;;;;;9.65;4.22;;;;;;;15.47;35.57;100988.31;10521965;28;20059;-64
2023/05/03 08:38:05;;;;;;;10.25;4.60;;;;;;;15.75;33.72;100981.22;10521520;28;20435;-64
2023/05/03 08:43:08;;;;;;;9.23;4.13;;;;;;;15.87;34.93;100972.50;10521445;28;20480;-64
2023/05/03 08:48:11;;;;;;;9.27;4.47;;;;;;;15.68;34.34;100965.88;10520593;28;20062;-64
2023/05/03 08:53:13;;;;;;;9.75;4.70;;;;;;;15.90;34.40;100964.38;10521100;28;20052;-65
2023/05/03 08:58:15;;;;;;;7.95;4.03;;;;;;;16.30;33.69;100954.69;10520559;28;20361;-64
2023/05/03 09:03:17;;;;;;;8.30;4.40;;;;;;;16.30;33.11;100953.81;10520817;28;20047;-65
2023/05/03 09:08:21;;;;;;;9.43;4.10;;;;;;;16.24;33.35;100966.47;10520357;28;20055;-64
2023/05/03 09:13:30;;;;;;;13.45;4.63;;;;;;;16.91;32.67;100956.63;10520360;28;20075;-64
2023/05/03 09:18:32;;;;;;;10.60;4.82;;;;;;;16.70;32.87;100951.03;10520014;28;20087;-64
2023/05/03 09:23:34;;;;;;;9.45;4.53;;;;;;;16.64;31.71;100948.81;10519914;28;20044;-64
2023/05/03 09:28:40;;;;;;;10.70;4.47;;;;;;;16.27;31.11;100931.13;10518473;28;20514;-64
2023/05/03 09:33:42;;;;;;;9.48;4.70;;;;;;;15.99;31.98;100937.41;10519132;28;20511;-64
2023/05/03 09:38:44;;;;;;;10.35;4.63;;;;;;;15.90;32.10;100934.50;10519281;28;20143;-64
2023/05/03 09:43:51;;;;;;;9.38;4.35;;;;;;;16.27;32.56;100931.13;10518740;28;20068;-64
2023/05/03 09:48:55;;;;;;;9.30;4.60;;;;;;;16.22;31.31;100930.59;10483792;28;20109;-64
2023/05/03 09:53:58;;;;;;;10.68;4.32;;;;;;;15.68;32.28;100940.34;10518079;28;20055;-64
2023/05/03 09:59:00;;;;;;;11.05;4.68;;;;;;;15.92;33.30;100945.81;10518467;28;20230;-64
2023/05/03 10:04:03;;;;;;;9.43;4.35;;;;;;;15.97;31.19;100946.34;10518690;28;20428;-62
2023/05/03 10:09:15;;;;;;;8.20;4.22;;;;;;;16.05;30.61;100941.41;10517719;28;20044;-62
2023/05/03 10:14:19;;;;;;;10.82;4.47;;;;;;;16.00;32.10;100938.22;10517784;28;20203;-62
2023/05/03 10:19:23;;;;;;;11.90;4.70;;;;;;;15.94;31.70;100921.00;10499981;28;20123;-62
2023/05/03 10:24:25;;;;;;;8.65;4.22;;;;;;;16.31;31.72;100915.91;10518330;28;20174;-62
2023/05/03 10:29:30;;;;;;;7.93;4.47;;;;;;;16.10;31.91;100915.59;10517657;28;20044;-62
2023/05/03 10:34:34;;;;;;;9.90;4.85;;;;;;;15.36;32.12;100910.75;10517623;28;20503;-63
2023/05/03 10:39:36;;;;;;;8.95;4.10;;;;;;;15.80;32.17;100902.63;10516743;28;20087;-64
2023/05/03 10:44:53;;;;;;;8.10;3.78;;;;;;;15.93;33.99;100902.66;10498876;28;20047;-65
2023/05/03 10:50:10;;;;;;;9.45;4.03;;;;;;;15.40;32.88;100893.81;10517039;28;20044;-64
2023/05/03 10:55:17;;;;;;;7.38;4.10;;;;;;;15.37;31.92;100893.13;10516930;28;20532;-64
2023/05/03 11:00:31;;;;;;;8.63;4.07;;;;;;;15.04;33.06;100888.22;10517014;28;20055;-64
2023/05/03 11:05:34;;;;;;;9.68;3.92;;;;;;;14.87;34.89;100893.72;10532043;28;20113;-63
2023/05/03 11:10:36;;;;;;;11.38;4.45;;;;;;;15.21;33.14;100888.00;10516252;28;20059;-64
2023/05/03 11:15:38;;;;;;;12.82;4.50;;;;;;;14.87;33.36;100880.53;10498739;28;20118;-64
2023/05/03 11:20:40;;;;;;;9.73;3.80;;;;;;;15.04;33.57;100861.88;10516678;28;20048;-64
2023/05/03 11:25:46;;;;;;;6.60;3.60;;;;;;;15.36;35.59;100865.09;10488106;28;20412;-64
2023/05/03 11:30:49;;;;;;;6.78;3.20;;;;;;;15.44;34.15;100857.53;10516473;28;20218;-64
2023/05/03 11:35:55;;;;;;;7.15;3.70;;;;;;;15.61;32.60;100848.56;10497827;28;20083;-64
2023/05/03 11:40:57;;;;;;;10.68;3.90;;;;;;;15.23;32.92;100848.38;10516429;28;20077;-64
2023/05/03 11:45:59;;;;;;;10.02;4.00;;;;;;;15.52;32.59;100850.00;10498605;28;20044;-64
2023/05/03 11:51:06;;;;;;;8.90;3.70;;;;;;;15.50;32.48;100837.88;10531799;28;20972;-64
2023/05/03 11:56:12;;;;;;;8.70;3.90;;;;;;;15.83;32.76;100833.84;10523018;28;20044;-64
2023/05/03 12:01:15;;;;;;;9.35;3.75;;;;;;;15.92;32.41;100825.28;10523247;28;20052;-64
2023/05/03 12:06:17;;;;;;;19.98;4.00;;;;;;;16.16;33.34;100825.44;10522988;28;20135;-64
2023/05/03 12:11:20;;;;;;;8.85;3.70;;;;;;;16.38;32.53;100824.78;10522165;28;20048;-64
2023/05/03 12:16:27;;;;;;;7.15;3.40;;;;;;;16.62;32.76;100825.75;10522749;28;20043;-64
2023/05/03 12:21:46;;;;;;;9.85;3.63;;;;;;;16.49;29.95;100822.28;10522447;28;20044;-63
2023/05/03 12:27:07;;;;;;;8.55;4.03;;;;;;;16.39;31.62;100807.97;10502909;28;20052;-64
2023/05/03 12:32:14;;;;;;;10.18;3.00;;;;;;;16.49;32.66;100801.16;10504404;28;20499;-64
2023/05/03 12:37:16;;;;;;;5.63;2.92;;;;;;;16.51;32.63;100792.16;10522073;28;20058;-64
2023/05/03 12:42:18;;;;;;;6.93;3.13;;;;;;;16.34;30.99;100781.94;10521463;28;20059;-64
2023/05/03 12:47:22;;;;;;;9.13;3.25;;;;;;;16.47;33.10;100760.81;10521724;28;20059;-64
2023/05/03 12:52:33;;;;;;;8.30;3.10;;;;;;;16.43;32.83;100760.16;10521419;28;20058;-64
2023/05/03 12:57:39;;;;;;;10.63;2.93;;;;;;;16.67;33.12;100760.25;10520809;28;20085;-63
2023/05/03 13:02:46;;;;;;;8.30;2.97;;;;;;;16.94;31.97;100760.88;10520484;28;20214;-63
2023/05/03 13:07:50;;;;;;;10.70;3.00;;;;;;;17.15;30.79;100756.66;10520404;28;20052;-63
2023/05/03 13:12:57;;;;;;;7.43;2.83;;;;;;;17.55;30.72;100758.03;10520302;28;20048;-64
2023/05/03 13:18:00;;;;;;;7.97;2.70;;;;;;;17.17;30.34;100752.09;10518644;28;20054;-64
2023/05/03 13:23:03;;;;;;;10.45;2.90;;;;;;;16.91;30.47;100737.31;10519473;28;20111;-64
2023/05/03 13:28:05;;;;;;;8.52;2.88;;;;;;;17.13;29.17;100726.00;10519463;28;20047;-64
2023/05/03 13:33:07;;;;;;;8.30;2.53;;;;;;;17.23;30.69;100727.00;10519803;28;20056;-64
2023/05/03 13:38:09;;;;;;;8.40;2.72;;;;;;;17.39;29.69;100719.63;10500885;28;20082;-64
2023/05/03 13:43:11;;;;;;;9.20;2.42;;;;;;;17.62;29.92;100703.72;10519205;28;20411;-64
2023/05/03 13:48:13;;;;;;;6.47;2.53;;;;;;;17.33;30.03;100707.72;10535030;28;20946;-64
2023/05/03 13:53:20;;;;;;;6.30;2.65;;;;;;;17.30;29.87;100696.50;10534428;28;20044;-64
2023/05/03 13:58:22;;;;;;;9.25;2.15;;;;;;;17.53;30.74;100685.03;10518672;28;20044;-64
2023/05/03 14:03:24;;;;;;;8.30;2.35;;;;;;;17.70;28.71;100685.44;10518316;28;20360;-64
2023/05/03 14:08:26;;;;;;;6.88;2.60;;;;;;;17.93;28.46;100669.59;10518181;28;20044;-64
2023/05/03 14:13:28;;;;;;;5.45;2.22;;;;;;;18.01;28.59;100664.53;10517812;28;20467;-64
2023/05/03 14:18:41;;;;;;;8.18;2.70;;;;;;;17.97;28.04;100657.78;10500265;28;20051;-64
2023/05/03 14:23:48;;;;;;;7.65;2.35;;;;;;;18.16;29.33;100653.56;10533350;28;20055;-64
2023/05/03 14:28:50;;;;;;;4.88;2.22;;;;;;;18.06;29.66;100649.09;10517130;28;20054;-64
2023/05/03 14:33:52;;;;;;;7.35;2.42;;;;;;;18.05;27.55;100644.78;10517463;28;20052;-64
2023/05/03 14:38:54;;;;;;;5.65;2.28;;;;;;;18.05;28.00;100626.25;10517223;28;20058;-64
2023/05/03 14:43:56;;;;;;;5.90;2.25;;;;;;;18.13;27.24;100630.00;10517144;28;20135;-65
2023/05/03 14:48:58;;;;;;;5.40;2.28;;;;;;;18.09;28.02;100614.47;10517239;28;20438;-64
2023/05/03 14:54:00;;;;;;;8.95;2.60;;;;;;;18.10;27.85;100610.84;10516431;28;20093;-64
2023/05/03 14:59:02;;;;;;;8.60;2.38;;;;;;;18.04;27.96;100616.63;10498911;28;20052;-64
2023/05/03 15:04:06;;;;;;;6.05;2.28;;;;;;;18.19;27.71;100615.41;10532207;28;20050;-64
2023/05/03 15:09:10;;;;;;;8.50;2.40;;;;;;;18.11;26.91;100616.03;10516818;28;20048;-64
2023/05/03 15:14:12;;;;;;;7.45;2.13;;;;;;;18.14;27.51;100610.47;10481623;28;20446;-64
2023/05/03 15:19:14;;;;;;;7.00;2.35;;;;;;;17.90;27.45;100596.56;10516509;28;20059;-64
2023/05/03 15:24:17;;;;;;;5.28;2.25;;;;;;;18.10;28.76;100597.59;10531828;28;20044;-64
2023/05/03 15:29:19;;;;;;;9.63;2.28;;;;;;;18.39;28.18;100594.34;10521910;28;20058;-64
2023/05/03 15:34:21;;;;;;;3.45;1.85;;;;;;;18.21;27.09;100592.34;10524125;28;20408;-64
2023/05/03 15:39:23;;;;;;;7.68;2.30;;;;;;;18.35;27.29;100584.09;10524439;28;20048;-64
2023/05/03 15:44:25;;;;;;;11.45;2.70;;;;;;;18.37;27.79;100590.13;10523589;28;20062;-64
2023/05/03 15:49:26;;;;;;;15.13;2.03;;;;;;;18.43;28.17;100584.31;10523668;28;20048;-64
2023/05/03 15:54:28;;;;;;;6.45;2.10;;;;;;;18.26;28.37;100579.56;10522875;28;20048;-64
2023/05/03 15:59:30;;;;;;;10.50;2.55;;;;;;;18.25;27.27;100573.44;10523412;28;20051;-64
2023/05/03 16:04:32;;;;;;;8.07;1.92;;;;;;;18.15;27.22;100582.22;10522939;28;20494;-64
2023/05/03 16:09:34;;;;;;;9.27;2.22;;;;;;;18.12;28.05;100580.63;10523065;28;20048;-64
2023/05/03 16:14:35;;;;;;;5.88;1.83;;;;;;;18.05;27.28;100579.47;10520888;28;20048;-64
2023/05/03 16:19:37;;;;;;;5.72;2.10;;;;;;;18.10;27.85;100579.06;10522066;28;20403;-64
2023/05/03 16:24:39;;;;;;;4.88;1.80;;;;;;;18.02;27.14;100577.06;10522255;28;20040;-64
2023/05/03 16:29:41;;;;;;;6.28;2.10;;;;;;;18.03;27.88;100573.47;10521998;28;20056;-64
2023/05/03 16:34:43;;;;;;;28.35;3.70;;;;;;;18.19;28.05;100575.69;10521551;28;20514;-64
2023/05/03 16:39:44;;;;;;;32.20;3.40;;;;;;;18.12;28.77;100582.44;10521271;28;20151;-64
2023/05/03 16:44:46;;;;;;;9.20;2.13;;;;;;;18.23;28.59;100574.50;10521718;28;20052;-64
2023/05/03 16:49:48;;;;;;;12.13;2.28;;;;;;;18.06;28.67;100570.53;10521342;28;20040;-64
2023/05/03 16:54:50;;;;;;;5.70;2.00;;;;;;;18.05;28.97;100571.53;10520886;28;20043;-64
2023/05/03 16:59:52;;;;;;;4.43;1.88;;;;;;;17.86;28.00;100566.00;10520708;28;20052;-64
2023/05/03 17:04:53;;;;;;;3.20;1.92;;;;;;;17.84;29.40;100565.28;10520618;28;20059;-64
2023/05/03 17:09:55;;;;;;;4.85;1.70;;;;;;;17.79;28.56;100565.66;10520389;28;20055;-64
2023/05/03 17:14:57;;;;;;;5.85;2.00;;;;;;;17.85;28.93;100559.88;10519619;28;20415;-63
2023/05/03 17:19:59;;;;;;;6.35;2.00;;;;;;;17.73;28.48;100565.28;10520150;28;20050;-63
2023/05/03 17:25:01;;;;;;;9.15;1.65;;;;;;;17.73;28.75;100560.84;10520179;28;20050;-63
2023/05/03 17:30:05;;;;;;;9.77;2.00;;;;;;;17.62;28.63;100560.03;10519706;28;20052;-63
2023/05/03 17:35:09;;;;;;;3.67;1.70;;;;;;;17.58;28.65;100566.53;10519776;28;20327;-63
2023/05/03 17:40:12;;;;;;;7.78;1.80;;;;;;;17.42;28.51;100558.97;10501166;28;20145;-64
2023/05/03 17:45:14;;;;;;;5.32;1.70;;;;;;;17.10;28.31;100565.84;10519089;28;20046;-63
2023/05/03 17:50:15;;;;;;;4.88;2.00;;;;;;;17.06;28.12;100566.22;10518177;28;20131;-64
2023/05/03 17:55:18;;;;;;;6.90;1.80;;;;;;;17.01;29.32;100566.56;10518679;28;20052;-63
2023/05/03 18:00:21;;;;;;;4.20;1.80;;;;;;;17.00;31.05;100564.88;10518637;28;20109;-63
2023/05/03 18:05:23;;;;;;;6.18;1.80;;;;;;;16.83;30.18;100560.03;10518049;28;20075;-64
2023/05/03 18:10:25;;;;;;;5.82;2.10;;;;;;;16.71;30.47;100558.31;10518063;28;20534;-63
2023/05/03 18:15:26;;;;;;;8.70;2.15;;;;;;;16.57;30.57;100558.50;10499571;28;20095;-63
2023/05/03 18:20:28;;;;;;;5.95;1.90;;;;;;;16.40;30.78;100561.50;10518100;28;20120;-63
2023/05/03 18:25:30;;;;;;;5.43;1.70;;;;;;;16.19;31.18;100562.13;10517889;28;20044;-63
2023/05/03 18:30:32;;;;;;;5.20;1.88;;;;;;;15.96;31.41;100568.22;10499272;28;20048;-63
2023/05/03 18:35:34;;;;;;;6.88;2.03;;;;;;;15.75;32.23;100576.84;10517245;28;20151;-63
2023/05/03 18:40:35;;;;;;;7.10;1.90;;;;;;;15.56;33.28;100574.66;10517386;28;20040;-63
2023/05/03 18:45:38;;;;;;;5.78;1.98;;;;;;;15.32;33.85;100585.09;10517424;28;20424;-63
2023/05/03 18:50:43;;;;;;;4.80;1.70;;;;;;;15.01;34.81;100587.28;10517019;28;20072;-63
2023/05/03 18:55:45;;;;;;;8.45;2.10;;;;;;;14.75;35.29;100593.44;10516841;28;20408;-63
2023/05/03 19:00:46;;;;;;;7.05;2.00;;;;;;;14.52;36.76;100593.19;10518458;28;20500;-63
2023/05/03 19:05:48;;;;;;;4.78;1.80;;;;;;;14.34;37.61;100586.44;10525196;28;20084;-63
2023/05/03 19:10:50;;;;;;;4.45;2.10;;;;;;;14.17;38.53;100597.19;10525516;28;20160;-63
2023/05/03 19:15:52;;;;;;;12.52;2.33;;;;;;;13.97;38.69;100588.88;10525167;28;20578;-63
2023/05/03 19:20:55;;;;;;;9.98;2.25;;;;;;;13.77;39.33;100604.16;10524241;28;20505;-63
2023/05/03 19:25:57;;;;;;;9.40;2.08;;;;;;;13.63;39.64;100598.06;10524641;28;20033;-62
2023/05/03 19:31:02;;;;;;;7.07;2.20;;;;;;;13.49;39.58;100603.31;10524406;28;20131;-63
2023/05/03 19:36:07;;;;;;;6.90;1.90;;;;;;;13.36;40.09;100597.91;10523896;28;20649;-63
2023/05/03 19:41:11;;;;;;;5.45;2.30;;;;;;;13.20;40.66;100602.41;10523989;28;20040;-63
2023/05/03 19:46:15;;;;;;;5.65;2.10;;;;;;;13.03;41.00;100609.63;10524332;28;20488;-62
2023/05/03 19:51:16;;;;;;;6.88;2.13;;;;;;;12.75;41.88;100611.22;10523501;28;20047;-62
2023/05/03 19:56:20;;;;;;;6.03;1.90;;;;;;;12.65;41.57;100604.81;10505151;28;20044;-62
2023/05/03 20:01:22;;;;;;;6.68;2.40;;;;;;;12.50;42.02;100615.31;10504795;28;20486;-62
2023/05/03 20:06:24;;;;;;;4.25;1.95;;;;;;;12.37;42.39;100620.44;10523122;28;20301;-62
2023/05/03 20:11:26;;;;;;;6.75;2.47;;;;;;;12.27;42.81;100623.63;10522120;28;20556;-62
2023/05/03 20:16:31;;;;;;;6.63;2.10;;;;;;;12.16;43.14;100618.97;10522649;28;20044;-62
2023/05/03 20:21:33;;;;;;;4.10;2.17;;;;;;;12.05;43.48;100626.56;10522484;28;20055;-62
2023/05/03 20:26:38;;;;;;;4.05;2.22;;;;;;;11.94;44.18;100615.81;10522134;28;20494;-63
2023/05/03 20:31:40;;;;;;;8.27;2.58;;;;;;;11.82;44.61;100612.09;10522005;28;20044;-63
2023/05/03 20:36:42;;;;;;;7.43;2.30;;;;;;;11.73;44.87;100609.13;10521765;28;20055;-62
2023/05/03 20:41:44;;;;;;;6.75;2.70;;;;;;;11.69;45.04;100604.97;10521512;28;20389;-62
2023/05/03 20:46:45;;;;;;;6.97;4.40;;;;;;;11.62;44.96;100606.25;10521705;28;20127;-62
2023/05/03 20:51:48;;;;;;;5.90;3.13;;;;;;;11.48;45.62;100604.34;10521031;28;20058;-63
2023/05/03 20:56:50;;;;;;;6.82;2.90;;;;;;;11.40;45.77;100603.06;10521259;28;20072;-62
2023/05/03 21:01:52;;;;;;;5.35;2.78;;;;;;;11.27;46.05;100606.28;10502987;28;20139;-62
2023/05/03 21:06:54;;;;;;;7.50;2.30;;;;;;;11.19;45.51;100605.84;10520570;28;20139;-62
2023/05/03 21:11:56;;;;;;;6.57;2.95;;;;;;;11.01;46.50;100601.53;10520392;28;20052;-63
2023/05/03 21:17:00;;;;;;;5.60;3.13;;;;;;;10.94;46.95;100602.78;10520053;28;20122;-62
2023/05/03 21:22:02;;;;;;;8.55;3.08;;;;;;;10.84;47.09;100609.41;10519978;28;20048;-63
2023/05/03 21:27:03;;;;;;;5.45;2.95;;;;;;;10.75;47.50;100622.06;10501721;28;20134;-63
2023/05/03 21:32:05;;;;;;;5.63;2.75;;;;;;;10.70;47.81;100622.31;10519750;28;20050;-62
2023/05/03 21:37:07;;;;;;;7.55;2.40;;;;;;;10.61;48.17;100621.91;10519423;28;20044;-62
2023/05/03 21:42:09;;;;;;;6.25;2.95;;;;;;;10.42;48.51;100617.56;10519378;28;20730;-62
2023/05/03 21:47:12;;;;;;;6.75;2.75;;;;;;;10.34;48.67;100614.47;10519168;28;20054;-62
2023/05/03 21:52:13;;;;;;;7.00;3.00;;;;;;;10.30;48.76;100614.69;10518575;28;20056;-62
2023/05/03 21:57:17;;;;;;;5.60;3.22;;;;;;;10.16;49.19;100606.66;10534303;28;20084;-62
2023/05/03 22:02:20;;;;;;;7.65;3.50;;;;;;;9.88;49.63;100603.63;10484381;28;20577;-62
2023/05/03 22:07:22;;;;;;;11.93;3.95;;;;;;;9.66;50.05;100598.56;10518204;28;20381;-62
2023/05/03 22:12:25;;;;;;;6.10;3.03;;;;;;;9.62;50.32;100587.38;10518343;28;20044;-63
2023/05/03 22:17:27;;;;;;;7.03;3.20;;;;;;;9.58;50.51;100591.03;10533945;28;20243;-62
2023/05/03 22:22:28;;;;;;;6.15;3.58;;;;;;;9.54;50.27;100592.06;10517880;28;20047;-63
2023/05/03 22:27:30;;;;;;;11.57;4.72;;;;;;;9.47;50.78;100593.28;10517824;28;20381;-62
2023/05/03 22:32:32;;;;;;;8.52;3.88;;;;;;;9.34;51.44;100592.13;10517584;28;20142;-62
2023/05/03 22:37:34;;;;;;;5.57;3.20;;;;;;;9.31;51.74;100584.44;10516943;28;20455;-63
2023/05/03 22:42:36;;;;;;;7.38;3.58;;;;;;;9.32;51.99;100585.31;10517017;28;20504;-63
2023/05/03 22:47:37;;;;;;;7.75;4.90;;;;;;;9.14;52.28;100586.94;10517837;28;20050;-63
2023/05/03 22:52:39;;;;;;;6.63;4.22;;;;;;;9.06;52.53;100583.81;10516784;28;20390;-63
2023/05/03 22:57:41;;;;;;;8.95;4.03;;;;;;;9.10;52.59;100580.16;10517148;28;20040;-63
2023/05/03 23:02:43;;;;;;;8.07;4.68;;;;;;;8.90;52.84;100587.13;10498725;28;20048;-63
2023/05/03 23:07:45;;;;;;;8.95;5.32;;;;;;;8.72;53.12;100580.94;10498503;28;20101;-63
2023/05/03 23:12:46;;;;;;;8.45;4.05;;;;;;;8.60;53.96;100582.31;10482186;28;20172;-63